createdAt,value
2022-08-24T00:01:11.655Z,995.43
2022-08-24T00:02:12.084Z,995.38
2022-08-24T00:04:16.321Z,995.37
2022-08-24T00:05:16.094Z,995.38
2022-08-24T00:07:27.090Z,995.37
2022-08-24T00:08:20.525Z,995.39
2022-08-24T00:10:24.996Z,995.39
2022-08-24T00:11:24.965Z,995.37
2022-08-24T00:12:24.951Z,995.36
2022-08-24T00:13:24.943Z,995.41
2022-08-24T00:14:24.928Z,995.39
2022-08-24T00:15:24.919Z,995.38
2022-08-24T00:16:24.925Z,995.37
2022-08-24T00:17:24.898Z,995.39
2022-08-24T00:18:24.883Z,995.35
2022-08-24T00:19:24.874Z,995.38
2022-08-24T00:20:24.860Z,995.39
2022-08-24T00:21:24.848Z,995.38
2022-08-24T00:22:24.839Z,995.38
2022-08-24T00:23:24.827Z,995.39
2022-08-24T00:24:24.818Z,995.37
2022-08-24T00:25:24.801Z,995.32
2022-08-24T00:26:28.605Z,995.38
2022-08-24T00:27:24.781Z,995.35
2022-08-24T00:28:24.768Z,995.33
2022-08-24T00:29:24.756Z,995.32
2022-08-24T00:30:24.747Z,995.32
2022-08-24T00:31:24.791Z,995.29
2022-08-24T00:32:24.721Z,995.34
2022-08-24T00:33:24.710Z,995.38
2022-08-24T00:34:24.698Z,995.34
2022-08-24T00:35:24.686Z,995.32
2022-08-24T00:36:24.678Z,995.35
2022-08-24T00:37:24.671Z,995.33
2022-08-24T00:38:24.652Z,995.32
2022-08-24T00:39:24.641Z,995.33
2022-08-24T00:40:24.665Z,995.34
2022-08-24T00:41:24.619Z,995.34
2022-08-24T00:42:24.605Z,995.39
2022-08-24T00:43:24.590Z,995.37
2022-08-24T00:44:24.585Z,995.38
2022-08-24T00:45:24.707Z,995.36
2022-08-24T00:46:24.557Z,995.36
2022-08-24T00:47:24.545Z,995.35
2022-08-24T00:48:24.534Z,995.34
2022-08-24T00:49:24.532Z,995.38
2022-08-24T00:50:24.511Z,995.38
2022-08-24T00:51:24.502Z,995.37
2022-08-24T00:52:24.488Z,995.36
2022-08-24T00:53:24.475Z,995.37
2022-08-24T00:54:24.468Z,995.38
2022-08-24T00:55:24.462Z,995.38
2022-08-24T00:56:24.445Z,995.39
2022-08-24T00:57:24.430Z,995.39
2022-08-24T00:58:24.417Z,995.37
2022-08-24T00:59:24.406Z,995.38
2022-08-24T01:00:24.394Z,995.36
2022-08-24T01:01:24.452Z,995.34
2022-08-24T01:02:24.443Z,995.33
2022-08-24T01:03:24.354Z,995.32
2022-08-24T01:04:24.345Z,995.31
2022-08-24T01:05:24.334Z,995.30
2022-08-24T01:06:24.321Z,995.30
2022-08-24T01:07:24.309Z,995.31
2022-08-24T01:08:24.299Z,995.32
2022-08-24T01:09:24.286Z,995.29
2022-08-24T01:10:24.274Z,995.33
2022-08-24T01:11:24.266Z,995.28
2022-08-24T01:12:24.250Z,995.29
2022-08-24T01:13:24.242Z,995.33
2022-08-24T01:14:24.228Z,995.30
2022-08-24T01:15:24.213Z,995.29
2022-08-24T01:16:24.249Z,995.34
2022-08-24T01:17:24.191Z,995.32
2022-08-24T01:18:24.183Z,995.34
2022-08-24T01:19:24.176Z,995.33
2022-08-24T01:20:24.157Z,995.32
2022-08-24T01:21:24.143Z,995.31
2022-08-24T01:22:24.136Z,995.33
2022-08-24T01:23:24.122Z,995.31
2022-08-24T01:24:24.109Z,995.33
2022-08-24T01:25:24.098Z,995.31
2022-08-24T01:26:24.086Z,995.32
2022-08-24T01:27:27.832Z,995.32
2022-08-24T01:28:27.702Z,995.30
2022-08-24T01:29:24.047Z,995.31
2022-08-24T01:30:30.772Z,995.35
2022-08-24T01:31:24.069Z,995.34
2022-08-24T01:32:24.015Z,995.30
2022-08-24T01:33:24.004Z,995.36
2022-08-24T01:34:23.991Z,995.34
2022-08-24T01:35:23.977Z,995.30
2022-08-24T01:36:28.504Z,995.34
2022-08-24T01:37:23.953Z,995.30
2022-08-24T01:38:23.942Z,995.30
2022-08-24T01:39:23.934Z,995.34
2022-08-24T01:40:23.949Z,995.36
2022-08-24T01:41:28.700Z,995.35
2022-08-24T01:42:23.895Z,995.38
2022-08-24T01:43:23.884Z,995.34
2022-08-24T01:44:23.874Z,995.37
2022-08-24T01:45:23.861Z,995.34
2022-08-24T01:46:23.888Z,995.35
2022-08-24T01:47:23.838Z,995.32
2022-08-24T01:48:23.829Z,995.35
2022-08-24T01:49:23.816Z,995.37
2022-08-24T01:50:23.802Z,995.36
2022-08-24T01:51:23.786Z,995.38
2022-08-24T01:52:23.776Z,995.37
2022-08-24T01:53:23.796Z,995.41
2022-08-24T01:54:23.749Z,995.43
2022-08-24T01:55:23.741Z,995.43
2022-08-24T01:56:23.729Z,995.46
2022-08-24T01:57:23.717Z,995.43
2022-08-24T01:58:23.705Z,995.49
2022-08-24T01:59:23.691Z,995.48
2022-08-24T02:00:23.677Z,995.53
2022-08-24T02:01:23.695Z,995.51
2022-08-24T02:02:23.697Z,995.56
2022-08-24T02:03:27.678Z,995.51
2022-08-24T02:04:23.628Z,995.52
2022-08-24T02:05:23.620Z,995.57
2022-08-24T02:06:23.611Z,995.53
2022-08-24T02:07:23.597Z,995.56
2022-08-24T02:08:23.583Z,995.62
2022-08-24T02:09:23.578Z,995.61
2022-08-24T02:10:23.558Z,995.60
2022-08-24T02:11:23.545Z,995.56
2022-08-24T02:12:23.534Z,995.58
2022-08-24T02:13:23.526Z,995.60
2022-08-24T02:14:23.509Z,995.57
2022-08-24T02:15:23.502Z,995.61
2022-08-24T02:16:23.557Z,995.59
2022-08-24T02:17:23.478Z,995.60
2022-08-24T02:18:23.464Z,995.65
2022-08-24T02:19:23.451Z,995.60
2022-08-24T02:20:23.441Z,995.61
2022-08-24T02:21:23.426Z,995.63
2022-08-24T02:22:23.414Z,995.66
2022-08-24T02:23:23.405Z,995.66
2022-08-24T02:24:23.391Z,995.64
2022-08-24T02:25:23.378Z,995.61
2022-08-24T02:26:23.364Z,995.64
2022-08-24T02:27:23.353Z,995.66
2022-08-24T02:28:23.343Z,995.64
2022-08-24T02:29:23.330Z,995.61
2022-08-24T02:30:23.317Z,995.65
2022-08-24T02:31:23.366Z,995.68
2022-08-24T02:32:23.292Z,995.65
2022-08-24T02:33:23.283Z,995.70
2022-08-24T02:34:23.267Z,995.69
2022-08-24T02:35:23.260Z,995.68
2022-08-24T02:36:25.748Z,995.67
2022-08-24T02:37:23.235Z,995.69
2022-08-24T02:38:23.220Z,995.70
2022-08-24T02:39:23.211Z,995.72
2022-08-24T02:40:23.236Z,995.76
2022-08-24T02:41:23.187Z,995.74
2022-08-24T02:42:23.172Z,995.74
2022-08-24T02:43:23.163Z,995.72
2022-08-24T02:44:23.148Z,995.72
2022-08-24T02:45:23.143Z,995.72
2022-08-24T02:46:23.175Z,995.73
2022-08-24T02:47:23.116Z,995.71
2022-08-24T02:48:23.097Z,995.75
2022-08-24T02:49:23.092Z,995.80
2022-08-24T02:50:23.073Z,995.80
2022-08-24T02:51:23.061Z,995.82
2022-08-24T02:52:23.051Z,995.80
2022-08-24T02:53:23.037Z,995.81
2022-08-24T02:54:23.023Z,995.79
2022-08-24T02:55:23.048Z,995.84
2022-08-24T02:56:22.999Z,995.82
2022-08-24T02:57:22.999Z,995.80
2022-08-24T02:58:22.996Z,995.81
2022-08-24T02:59:22.977Z,995.77
2022-08-24T03:00:22.952Z,995.79
2022-08-24T03:01:23.950Z,995.78
2022-08-24T03:02:22.965Z,995.79
2022-08-24T03:03:22.918Z,995.84
2022-08-24T03:04:22.902Z,995.83
2022-08-24T03:05:23.294Z,995.83
2022-08-24T03:06:22.886Z,995.85
2022-08-24T03:07:22.864Z,995.84
2022-08-24T03:08:22.853Z,995.84
2022-08-24T03:09:23.355Z,995.85
2022-08-24T03:10:23.680Z,995.86
2022-08-24T03:11:25.751Z,995.87
2022-08-24T03:12:22.801Z,995.86
2022-08-24T03:13:23.133Z,995.85
2022-08-24T03:14:22.774Z,995.83
2022-08-24T03:15:22.774Z,995.83
2022-08-24T03:16:22.754Z,995.82
2022-08-24T03:17:22.744Z,995.79
2022-08-24T03:18:24.797Z,995.84
2022-08-24T03:19:22.713Z,995.85
2022-08-24T03:20:22.705Z,995.81
2022-08-24T03:21:22.695Z,995.83
2022-08-24T03:22:22.812Z,995.81
2022-08-24T03:23:22.666Z,995.79
2022-08-24T03:24:22.649Z,995.80
2022-08-24T03:25:22.638Z,995.78
2022-08-24T03:26:22.623Z,995.80
2022-08-24T03:27:22.611Z,995.80
2022-08-24T03:28:24.103Z,995.76
2022-08-24T03:29:23.981Z,995.71
2022-08-24T03:30:22.719Z,995.72
2022-08-24T03:31:22.559Z,995.72
2022-08-24T03:32:22.546Z,995.70
2022-08-24T03:33:22.533Z,995.67
2022-08-24T03:34:22.521Z,995.67
2022-08-24T03:35:22.508Z,995.64
2022-08-24T03:36:22.519Z,995.64
2022-08-24T03:37:22.485Z,995.63
2022-08-24T03:38:22.538Z,995.63
2022-08-24T03:39:22.464Z,995.65
2022-08-24T03:40:24.929Z,995.60
2022-08-24T03:41:22.431Z,995.66
2022-08-24T03:42:22.414Z,995.65
2022-08-24T03:43:22.403Z,995.62
2022-08-24T03:44:23.298Z,995.66
2022-08-24T03:45:22.378Z,995.63
2022-08-24T03:46:22.479Z,995.67
2022-08-24T03:47:22.355Z,995.65
2022-08-24T03:48:22.338Z,995.65
2022-08-24T03:49:22.332Z,995.63
2022-08-24T03:50:22.309Z,995.62
2022-08-24T03:51:22.301Z,995.59
2022-08-24T03:52:22.284Z,995.62
2022-08-24T03:53:22.281Z,995.58
2022-08-24T03:54:22.256Z,995.56
2022-08-24T03:55:22.243Z,995.54
2022-08-24T03:56:22.232Z,995.56
2022-08-24T03:57:22.220Z,995.57
2022-08-24T03:58:22.202Z,995.59
2022-08-24T03:59:22.191Z,995.58
2022-08-24T04:00:22.179Z,995.60
2022-08-24T04:01:22.211Z,995.57
2022-08-24T04:02:22.190Z,995.62
2022-08-24T04:03:22.141Z,995.61
2022-08-24T04:04:22.136Z,995.63
2022-08-24T04:05:22.111Z,995.63
2022-08-24T04:06:22.099Z,995.63
2022-08-24T04:07:22.087Z,995.64
2022-08-24T04:08:22.072Z,995.64
2022-08-24T04:09:22.060Z,995.63
2022-08-24T04:10:22.048Z,995.66
2022-08-24T04:11:22.032Z,995.62
2022-08-24T04:12:23.251Z,995.61
2022-08-24T04:13:22.007Z,995.67
2022-08-24T04:14:26.442Z,995.61
2022-08-24T04:15:21.981Z,995.61
2022-08-24T04:16:21.991Z,995.63
2022-08-24T04:17:21.953Z,995.63
2022-08-24T04:18:25.718Z,995.61
2022-08-24T04:19:21.925Z,995.62
2022-08-24T04:20:21.913Z,995.62
2022-08-24T04:21:21.901Z,995.63
2022-08-24T04:22:21.884Z,995.61
2022-08-24T04:23:21.892Z,995.65
2022-08-24T04:24:21.860Z,995.63
2022-08-24T04:25:25.065Z,995.63
2022-08-24T04:26:44.137Z,995.60
2022-08-24T04:27:21.819Z,995.59
2022-08-24T04:28:21.806Z,995.68
2022-08-24T04:29:21.797Z,995.66
2022-08-24T04:30:21.779Z,995.69
2022-08-24T04:31:21.851Z,995.70
2022-08-24T04:32:21.758Z,995.70
2022-08-24T04:33:21.743Z,995.72
2022-08-24T04:34:21.730Z,995.71
2022-08-24T04:35:21.715Z,995.72
2022-08-24T04:36:21.704Z,995.71
2022-08-24T04:37:28.027Z,995.72
2022-08-24T04:38:21.674Z,995.73
2022-08-24T04:39:21.669Z,995.74
2022-08-24T04:40:21.685Z,995.73
2022-08-24T04:41:31.591Z,995.74
2022-08-24T04:42:21.623Z,995.81
2022-08-24T04:43:21.615Z,995.80
2022-08-24T04:44:21.601Z,995.81
2022-08-24T04:45:21.624Z,995.81
2022-08-24T04:46:21.569Z,995.78
2022-08-24T04:47:21.559Z,995.75
2022-08-24T04:48:21.545Z,995.80
2022-08-24T04:49:21.536Z,995.83
2022-08-24T04:50:21.521Z,995.84
2022-08-24T04:51:21.511Z,995.83
2022-08-24T04:52:21.491Z,995.84
2022-08-24T04:53:21.484Z,995.87
2022-08-24T04:54:21.465Z,995.83
2022-08-24T04:55:21.454Z,995.84
2022-08-24T04:56:21.469Z,995.84
2022-08-24T04:57:21.429Z,995.87
2022-08-24T04:58:21.415Z,995.88
2022-08-24T04:59:21.407Z,995.88
2022-08-24T05:00:21.398Z,995.90
2022-08-24T05:01:21.436Z,995.91
2022-08-24T05:02:21.391Z,995.91
2022-08-24T05:03:21.363Z,995.93
2022-08-24T05:04:21.335Z,995.92
2022-08-24T05:05:21.324Z,995.92
2022-08-24T05:06:21.308Z,995.96
2022-08-24T05:07:21.301Z,995.94
2022-08-24T05:08:21.285Z,995.98
2022-08-24T05:09:21.277Z,995.98
2022-08-24T05:10:21.258Z,995.97
2022-08-24T05:11:21.246Z,995.98
2022-08-24T05:12:21.233Z,995.98
2022-08-24T05:13:21.221Z,996.03
2022-08-24T05:14:22.891Z,996.01
2022-08-24T05:15:21.193Z,996.00
2022-08-24T05:16:21.198Z,995.99
2022-08-24T05:17:21.167Z,996.04
2022-08-24T05:18:23.520Z,995.97
2022-08-24T05:19:29.815Z,996.01
2022-08-24T05:21:26.723Z,996.02
2022-08-24T05:22:26.584Z,996.05
2022-08-24T05:24:32.046Z,996.04
2022-08-24T05:25:32.018Z,996.02
2022-08-24T05:26:32.006Z,996.04
2022-08-24T05:27:32.041Z,996.01
2022-08-24T05:28:31.987Z,996.00
2022-08-24T05:29:31.962Z,996.06
2022-08-24T05:30:31.957Z,996.06
2022-08-24T05:31:31.996Z,996.02
2022-08-24T05:32:31.929Z,995.99
2022-08-24T05:33:31.915Z,996.02
2022-08-24T05:34:31.899Z,995.99
2022-08-24T05:35:31.888Z,996.03
2022-08-24T05:36:31.877Z,996.04
2022-08-24T05:37:31.871Z,996.04
2022-08-24T05:38:31.847Z,996.04
2022-08-24T05:39:31.833Z,996.01
2022-08-24T05:40:33.399Z,996.04
2022-08-24T05:41:31.807Z,996.04
2022-08-24T05:42:31.805Z,996.07
2022-08-24T05:43:31.781Z,996.08
2022-08-24T05:44:31.771Z,996.09
2022-08-24T05:45:31.758Z,996.13
2022-08-24T05:46:31.799Z,996.13
2022-08-24T05:47:31.731Z,996.10
2022-08-24T05:48:31.720Z,996.14
2022-08-24T05:49:31.705Z,996.10
2022-08-24T05:50:31.702Z,996.10
2022-08-24T05:51:31.686Z,996.12
2022-08-24T05:52:31.674Z,996.16
2022-08-24T05:53:31.765Z,996.15
2022-08-24T05:54:31.646Z,996.11
2022-08-24T05:55:31.636Z,996.15
2022-08-24T05:56:32.189Z,996.15
2022-08-24T05:57:31.611Z,996.12
2022-08-24T05:58:31.596Z,996.14
2022-08-24T05:59:31.586Z,996.14
2022-08-24T06:00:31.571Z,996.11
2022-08-24T06:01:31.631Z,996.15
2022-08-24T06:02:31.713Z,996.16
2022-08-24T06:03:31.540Z,996.16
2022-08-24T06:04:31.526Z,996.19
2022-08-24T06:05:31.510Z,996.16
2022-08-24T06:06:31.499Z,996.17
2022-08-24T06:07:31.489Z,996.19
2022-08-24T06:08:31.479Z,996.22
2022-08-24T06:09:31.463Z,996.22
2022-08-24T06:10:36.838Z,996.24
2022-08-24T06:11:31.439Z,996.22
2022-08-24T06:12:31.425Z,996.25
2022-08-24T06:13:31.417Z,996.21
2022-08-24T06:14:31.402Z,996.24
2022-08-24T06:15:31.392Z,996.23
2022-08-24T06:16:31.422Z,996.24
2022-08-24T06:17:31.512Z,996.26
2022-08-24T06:18:31.355Z,996.22
2022-08-24T06:19:31.344Z,996.23
2022-08-24T06:20:31.344Z,996.28
2022-08-24T06:21:31.321Z,996.25
2022-08-24T06:22:31.310Z,996.24
2022-08-24T06:23:31.299Z,996.23
2022-08-24T06:24:31.286Z,996.26
2022-08-24T06:25:31.276Z,996.25
2022-08-24T06:26:31.263Z,996.25
2022-08-24T06:27:31.253Z,996.33
2022-08-24T06:28:31.240Z,996.29
2022-08-24T06:29:31.229Z,996.27
2022-08-24T06:30:31.217Z,996.29
2022-08-24T06:31:39.354Z,996.29
2022-08-24T06:32:31.198Z,996.30
2022-08-24T06:33:31.186Z,996.27
2022-08-24T06:34:31.172Z,996.24
2022-08-24T06:35:31.163Z,996.29
2022-08-24T06:36:31.149Z,996.28
2022-08-24T06:37:31.140Z,996.29
2022-08-24T06:38:31.340Z,996.27
2022-08-24T06:39:31.118Z,996.29
2022-08-24T06:40:31.152Z,996.29
2022-08-24T06:41:31.096Z,996.28
2022-08-24T06:42:31.085Z,996.29
2022-08-24T06:43:31.074Z,996.26
2022-08-24T06:44:31.062Z,996.26
2022-08-24T06:45:31.052Z,996.24
2022-08-24T06:46:33.053Z,996.26
2022-08-24T06:47:31.030Z,996.28
2022-08-24T06:48:31.020Z,996.29
2022-08-24T06:49:31.009Z,996.27
2022-08-24T06:50:31.007Z,996.29
2022-08-24T06:51:30.986Z,996.33
2022-08-24T06:52:30.980Z,996.33
2022-08-24T06:53:30.966Z,996.34
2022-08-24T06:54:30.954Z,996.30
2022-08-24T06:55:30.946Z,996.34
2022-08-24T06:56:30.932Z,996.34
2022-08-24T06:57:30.930Z,996.34
2022-08-24T06:58:30.912Z,996.35
2022-08-24T06:59:30.903Z,996.38
2022-08-24T07:00:30.903Z,996.35
2022-08-24T07:01:30.929Z,996.38
2022-08-24T07:02:30.934Z,996.37
2022-08-24T07:03:30.859Z,996.40
2022-08-24T07:04:30.851Z,996.40
2022-08-24T07:05:30.841Z,996.38
2022-08-24T07:06:30.826Z,996.39
2022-08-24T07:07:30.818Z,996.40
2022-08-24T07:08:30.807Z,996.42
2022-08-24T07:09:30.810Z,996.41
2022-08-24T07:10:30.789Z,996.43
2022-08-24T07:11:30.779Z,996.42
2022-08-24T07:12:30.767Z,996.48
2022-08-24T07:13:30.761Z,996.45
2022-08-24T07:14:30.747Z,996.46
2022-08-24T07:15:30.741Z,996.48
2022-08-24T07:16:30.725Z,996.46
2022-08-24T07:17:30.719Z,996.44
2022-08-24T07:18:30.705Z,996.48
2022-08-24T07:19:30.701Z,996.51
2022-08-24T07:20:30.685Z,996.54
2022-08-24T07:21:30.681Z,996.55
2022-08-24T07:22:30.668Z,996.56
2022-08-24T07:23:41.534Z,996.58
2022-08-24T07:24:30.657Z,996.56
2022-08-24T07:25:30.651Z,996.57
2022-08-24T07:26:30.630Z,996.57
2022-08-24T07:27:30.620Z,996.60
2022-08-24T07:28:32.030Z,996.59
2022-08-24T07:29:47.268Z,996.55
2022-08-24T07:30:30.596Z,996.55
2022-08-24T07:31:35.130Z,996.55
2022-08-24T07:32:30.573Z,996.56
2022-08-24T07:33:30.567Z,996.58
2022-08-24T07:34:30.554Z,996.59
2022-08-24T07:35:30.549Z,996.61
2022-08-24T07:36:30.537Z,996.58
2022-08-24T07:37:40.196Z,996.59
2022-08-24T07:38:30.518Z,996.56
2022-08-24T07:39:30.510Z,996.54
2022-08-24T07:40:30.539Z,996.54
2022-08-24T07:42:10.876Z,996.55
2022-08-24T07:42:32.152Z,996.55
2022-08-24T07:43:30.482Z,996.51
2022-08-24T07:44:30.465Z,996.54
2022-08-24T07:45:30.457Z,996.58
2022-08-24T07:46:30.492Z,996.55
2022-08-24T07:47:40.675Z,996.55
2022-08-24T07:48:30.436Z,996.56
2022-08-24T07:49:36.805Z,996.55
2022-08-24T07:50:30.416Z,996.53
2022-08-24T07:52:30.398Z,996.54
2022-08-24T07:53:43.776Z,996.55
2022-08-24T07:54:30.387Z,996.57
2022-08-24T07:55:30.380Z,996.60
2022-08-24T07:56:30.370Z,996.56
2022-08-24T07:57:30.361Z,996.64
2022-08-24T07:58:30.355Z,996.60
2022-08-24T07:59:30.346Z,996.59
2022-08-24T08:00:30.340Z,996.61
2022-08-24T08:01:30.371Z,996.64
2022-08-24T08:02:35.058Z,996.63
2022-08-24T08:03:30.316Z,996.66
2022-08-24T08:04:30.309Z,996.63
2022-08-24T08:05:30.313Z,996.62
2022-08-24T08:06:30.295Z,996.64
2022-08-24T08:07:30.292Z,996.64
2022-08-24T08:08:30.280Z,996.66
2022-08-24T08:09:30.277Z,996.65
2022-08-24T08:10:30.269Z,996.65
2022-08-24T08:11:30.262Z,996.65
2022-08-24T08:12:30.254Z,996.70
2022-08-24T08:13:30.324Z,996.65
2022-08-24T08:14:30.244Z,996.69
2022-08-24T08:15:30.288Z,996.69
2022-08-24T08:16:30.284Z,996.68
2022-08-24T08:17:30.223Z,996.73
2022-08-24T08:18:30.217Z,996.70
2022-08-24T08:19:30.239Z,996.75
2022-08-24T08:20:30.206Z,996.72
2022-08-24T08:21:30.201Z,996.67
2022-08-24T08:22:30.212Z,996.73
2022-08-24T08:23:30.189Z,996.76
2022-08-24T08:24:30.187Z,996.73
2022-08-24T08:25:30.177Z,996.73
2022-08-24T08:26:30.170Z,996.74
2022-08-24T08:27:30.168Z,996.78
2022-08-24T08:28:35.649Z,996.77
2022-08-24T08:29:30.159Z,996.79
2022-08-24T08:30:30.151Z,996.75
2022-08-24T08:31:30.259Z,996.79
2022-08-24T08:32:30.139Z,996.78
2022-08-24T08:33:30.135Z,996.81
2022-08-24T08:34:30.129Z,996.75
2022-08-24T08:35:30.123Z,996.81
2022-08-24T08:36:30.119Z,996.77
2022-08-24T08:37:30.140Z,996.81
2022-08-24T08:38:30.109Z,996.79
2022-08-24T08:39:30.104Z,996.79
2022-08-24T08:40:30.126Z,996.79
2022-08-24T08:41:30.097Z,996.77
2022-08-24T08:42:30.093Z,996.75
2022-08-24T08:43:30.092Z,996.77
2022-08-24T08:44:30.083Z,996.77
2022-08-24T08:45:30.078Z,996.77
2022-08-24T08:46:30.160Z,996.79
2022-08-24T08:47:30.068Z,996.76
2022-08-24T08:48:30.061Z,996.73
2022-08-24T08:49:30.061Z,996.75
2022-08-24T08:50:30.052Z,996.77
2022-08-24T08:51:30.049Z,996.76
2022-08-24T08:52:30.044Z,996.79
2022-08-24T08:53:30.040Z,996.79
2022-08-24T08:54:30.035Z,996.82
2022-08-24T08:55:30.033Z,996.85
2022-08-24T08:56:30.026Z,996.81
2022-08-24T08:57:30.022Z,996.86
2022-08-24T08:58:30.032Z,996.81
2022-08-24T08:59:30.013Z,996.74
2022-08-24T09:00:30.014Z,996.80
2022-08-24T09:01:32.641Z,996.79
2022-08-24T09:02:29.999Z,996.76
2022-08-24T09:03:29.997Z,996.76
2022-08-24T09:04:30.072Z,996.81
2022-08-24T09:05:30.000Z,996.74
2022-08-24T09:06:29.983Z,996.75
2022-08-24T09:07:29.986Z,996.73
2022-08-24T09:08:29.974Z,996.75
2022-08-24T09:09:34.748Z,996.76
2022-08-24T09:10:29.968Z,996.77
2022-08-24T09:11:29.964Z,996.78
2022-08-24T09:12:29.959Z,996.72
2022-08-24T09:13:29.955Z,996.73
2022-08-24T09:14:29.961Z,996.75
2022-08-24T09:15:29.951Z,996.77
2022-08-24T09:16:30.040Z,996.72
2022-08-24T09:17:29.941Z,996.75
2022-08-24T09:18:29.938Z,996.77
2022-08-24T09:19:31.646Z,996.78
2022-08-24T09:20:29.939Z,996.80
2022-08-24T09:21:29.929Z,996.78
2022-08-24T09:22:29.927Z,996.82
2022-08-24T09:23:29.936Z,996.79
2022-08-24T09:24:29.922Z,996.82
2022-08-24T09:25:29.928Z,996.81
2022-08-24T09:26:29.919Z,996.83
2022-08-24T09:27:29.916Z,996.83
2022-08-24T09:28:29.912Z,996.80
2022-08-24T09:29:29.909Z,996.88
2022-08-24T09:30:29.954Z,996.87
2022-08-24T09:31:29.970Z,996.86
2022-08-24T09:32:29.910Z,996.89
2022-08-24T09:33:29.901Z,996.87
2022-08-24T09:34:29.899Z,996.84
2022-08-24T09:35:29.898Z,996.87
2022-08-24T09:36:30.872Z,996.80
2022-08-24T09:37:29.895Z,996.75
2022-08-24T09:38:30.270Z,996.78
2022-08-24T09:39:29.981Z,996.74
2022-08-24T09:40:29.931Z,996.84
2022-08-24T09:41:29.886Z,996.82
2022-08-24T09:42:29.882Z,996.82
2022-08-24T09:43:29.892Z,996.85
2022-08-24T09:44:29.884Z,996.84
2022-08-24T09:45:29.887Z,996.89
2022-08-24T09:46:29.937Z,996.89
2022-08-24T09:47:29.881Z,996.84
2022-08-24T09:48:29.876Z,996.88
2022-08-24T09:49:29.873Z,996.88
2022-08-24T09:50:29.871Z,996.90
2022-08-24T09:51:29.873Z,996.93
2022-08-24T09:52:29.874Z,996.92
2022-08-24T09:53:29.868Z,996.91
2022-08-24T09:54:29.871Z,996.95
2022-08-24T09:55:29.872Z,996.92
2022-08-24T09:56:29.862Z,996.90
2022-08-24T09:57:38.868Z,996.91
2022-08-24T09:58:29.857Z,996.90
2022-08-24T09:59:29.862Z,996.94
2022-08-24T10:00:29.858Z,996.85
2022-08-24T10:01:29.927Z,996.89
2022-08-24T10:02:29.881Z,996.86
2022-08-24T10:03:36.124Z,996.84
2022-08-24T10:04:29.944Z,996.87
2022-08-24T10:05:33.491Z,996.85
2022-08-24T10:06:29.852Z,996.86
2022-08-24T10:07:29.853Z,996.81
2022-08-24T10:08:29.852Z,996.79
2022-08-24T10:09:29.842Z,996.81
2022-08-24T10:10:29.850Z,996.76
2022-08-24T10:11:29.851Z,996.74
2022-08-24T10:12:29.847Z,996.75
2022-08-24T10:13:29.837Z,996.74
2022-08-24T10:14:29.837Z,996.72
2022-08-24T10:15:29.838Z,996.76
2022-08-24T10:16:29.867Z,996.78
2022-08-24T10:17:29.834Z,996.73
2022-08-24T10:18:34.650Z,996.71
2022-08-24T10:19:29.837Z,996.68
2022-08-24T10:20:29.840Z,996.74
2022-08-24T10:21:29.832Z,996.71
2022-08-24T10:22:29.836Z,996.71
2022-08-24T10:23:29.833Z,996.73
2022-08-24T10:24:30.013Z,996.75
2022-08-24T10:25:29.832Z,996.73
2022-08-24T10:26:29.833Z,996.68
2022-08-24T10:27:29.831Z,996.64
2022-08-24T10:28:29.834Z,996.64
2022-08-24T10:29:29.829Z,996.65
2022-08-24T10:30:29.829Z,996.66
2022-08-24T10:31:29.853Z,996.64
2022-08-24T10:32:29.832Z,996.64
2022-08-24T10:33:29.830Z,996.62
2022-08-24T10:34:29.829Z,996.63
2022-08-24T10:35:29.829Z,996.66
2022-08-24T10:36:29.829Z,996.65
2022-08-24T10:37:29.829Z,996.63
2022-08-24T10:38:29.829Z,996.58
2022-08-24T10:39:29.828Z,996.62
2022-08-24T10:40:29.934Z,996.57
2022-08-24T10:41:29.832Z,996.61
2022-08-24T10:42:29.857Z,996.63
2022-08-24T10:43:29.830Z,996.61
2022-08-24T10:44:29.832Z,996.57
2022-08-24T10:45:29.871Z,996.54
2022-08-24T10:46:29.833Z,996.56
2022-08-24T10:47:30.638Z,996.54
2022-08-24T10:48:29.858Z,996.59
2022-08-24T10:49:29.841Z,996.56
2022-08-24T10:50:31.292Z,996.51
2022-08-24T10:51:29.834Z,996.59
2022-08-24T10:52:29.926Z,996.53
2022-08-24T10:53:29.837Z,996.51
2022-08-24T10:54:29.834Z,996.49
2022-08-24T10:55:29.836Z,996.52
2022-08-24T10:56:29.838Z,996.57
2022-08-24T10:57:29.837Z,996.60
2022-08-24T10:58:29.836Z,996.59
2022-08-24T10:59:29.839Z,996.58
2022-08-24T11:00:29.841Z,996.56
2022-08-24T11:01:29.901Z,996.53
2022-08-24T11:02:29.915Z,996.53
2022-08-24T11:03:29.839Z,996.54
2022-08-24T11:04:29.838Z,996.53
2022-08-24T11:05:29.840Z,996.55
2022-08-24T11:06:29.841Z,996.49
2022-08-24T11:07:29.871Z,996.48
2022-08-24T11:08:29.842Z,996.59
2022-08-24T11:09:29.843Z,996.55
2022-08-24T11:10:29.841Z,996.59
2022-08-24T11:11:29.842Z,996.54
2022-08-24T11:12:29.847Z,996.53
2022-08-24T11:13:29.842Z,996.55
2022-08-24T11:14:29.845Z,996.48
2022-08-24T11:15:29.844Z,996.53
2022-08-24T11:16:29.880Z,996.51
2022-08-24T11:17:29.887Z,996.51
2022-08-24T11:18:29.904Z,996.53
2022-08-24T11:19:29.853Z,996.53
2022-08-24T11:20:29.851Z,996.51
2022-08-24T11:21:29.856Z,996.47
2022-08-24T11:22:38.533Z,996.51
2022-08-24T11:24:35.838Z,996.45
2022-08-24T11:25:35.375Z,996.40
2022-08-24T11:27:40.881Z,996.42
2022-08-24T11:28:40.828Z,996.40
2022-08-24T11:30:46.316Z,996.37
2022-08-24T11:31:46.340Z,996.37
2022-08-24T11:33:40.710Z,996.35
2022-08-24T11:34:40.700Z,996.33
2022-08-24T11:36:46.192Z,996.33
2022-08-24T11:37:46.180Z,996.35
2022-08-24T11:39:51.765Z,996.35
2022-08-24T11:40:51.690Z,996.32
2022-08-24T11:42:57.168Z,996.33
2022-08-24T11:43:57.177Z,996.35
2022-08-24T11:44:57.164Z,996.36
2022-08-24T11:45:57.164Z,996.37
2022-08-24T11:46:57.230Z,996.35
2022-08-24T11:47:57.163Z,996.36
2022-08-24T11:48:57.161Z,996.34
2022-08-24T11:49:57.186Z,996.34
2022-08-24T11:50:57.160Z,996.30
2022-08-24T11:51:57.167Z,996.26
2022-08-24T11:52:57.158Z,996.31
2022-08-24T11:53:57.154Z,996.26
2022-08-24T11:54:57.156Z,996.27
2022-08-24T11:56:00.123Z,996.22
2022-08-24T11:56:57.153Z,996.25
2022-08-24T11:57:57.160Z,996.28
2022-08-24T11:58:57.171Z,996.24
2022-08-24T11:59:57.149Z,996.31
2022-08-24T12:00:57.150Z,996.29
2022-08-24T12:01:57.250Z,996.28
2022-08-24T12:02:57.293Z,996.25
2022-08-24T12:03:57.160Z,996.29
2022-08-24T12:04:57.146Z,996.23
2022-08-24T12:05:57.182Z,996.23
2022-08-24T12:06:57.221Z,996.23
2022-08-24T12:07:57.144Z,996.25
2022-08-24T12:08:57.144Z,996.17
2022-08-24T12:09:57.145Z,996.18
2022-08-24T12:10:57.145Z,996.23
2022-08-24T12:11:57.153Z,996.21
2022-08-24T12:12:57.140Z,996.18
2022-08-24T12:13:57.154Z,996.22
2022-08-24T12:14:57.147Z,996.19
2022-08-24T12:15:57.213Z,996.15
2022-08-24T12:16:57.141Z,996.12
2022-08-24T12:17:57.150Z,996.13
2022-08-24T12:18:57.142Z,996.16
2022-08-24T12:19:57.152Z,996.17
2022-08-24T12:20:57.136Z,996.16
2022-08-24T12:21:57.135Z,996.18
2022-08-24T12:22:57.138Z,996.18
2022-08-24T12:23:57.134Z,996.15
2022-08-24T12:24:57.137Z,996.13
2022-08-24T12:25:57.130Z,996.07
2022-08-24T12:26:57.132Z,996.10
2022-08-24T12:27:57.134Z,996.10
2022-08-24T12:28:57.130Z,996.09
2022-08-24T12:29:57.128Z,996.05
2022-08-24T12:30:57.130Z,996.05
2022-08-24T12:31:57.128Z,996.03
2022-08-24T12:32:57.127Z,995.99
2022-08-24T12:33:57.128Z,996.08
2022-08-24T12:34:58.832Z,996.00
2022-08-24T12:35:57.126Z,996.03
2022-08-24T12:36:57.125Z,996.04
2022-08-24T12:37:57.217Z,996.05
2022-08-24T12:38:57.129Z,996.04
2022-08-24T12:39:57.151Z,996.00
2022-08-24T12:40:57.123Z,996.03
2022-08-24T12:41:57.119Z,996.02
2022-08-24T12:42:57.121Z,996.03